Time;durP1;ratioP1;P1;durP2;ratioP2;P2;SDS_P1;SDS_P2;PMS_P1;PMS_P2;Temp;Humidity;BMP_temperature;BMP_pressure;BME280_temperature;BME280_humidity;BME280_pressure;Samples;Min_cycle;Max_cycle;Signal;HPM_P1;HPM_P2
2022/09/05 00:02:02;;;;;;;9.40;8.50;;;18.30;99.90;;;;;;5072357;28;20079;-62
2022/09/05 00:05:02;;;;;;;9.65;8.50;;;18.10;99.90;;;;;;5061797;28;20064;-62
2022/09/05 00:07:40;;;;;;;10.13;8.25;;;18.00;99.90;;;;;;5069143;28;20109;-62
2022/09/05 00:10:30;;;;;;;10.27;8.60;;;17.90;99.90;;;;;;5081218;22;20040;-62
2022/09/05 00:13:00;;;;;;;10.52;8.60;;;17.80;99.90;;;;;;5071671;28;20162;-63
2022/09/05 00:15:46;;;;;;;13.68;8.40;;;17.80;99.90;;;;;;5063781;28;20060;-63
2022/09/05 00:18:20;;;;;;;11.07;8.40;;;17.80;99.90;;;;;;5081257;28;20048;-62
2022/09/05 00:21:13;;;;;;;13.30;9.07;;;17.70;99.90;;;;;;5068995;28;20045;-62
2022/09/05 00:24:06;;;;;;;12.27;9.50;;;17.80;99.90;;;;;;5067253;28;20032;-62
2022/09/05 00:27:01;;;;;;;11.60;9.25;;;17.80;99.90;;;;;;5071906;28;20112;-62
2022/09/05 00:29:44;;;;;;;11.70;9.05;;;17.90;99.90;;;;;;5092118;28;20038;-63
2022/09/05 00:32:54;;;;;;;15.27;9.35;;;17.80;99.90;;;;;;5068432;28;20515;-63
2022/09/05 00:35:29;;;;;;;11.85;9.77;;;17.80;99.90;;;;;;5055739;28;20523;-62
2022/09/05 00:37:56;;;;;;;9.63;8.60;;;17.80;99.90;;;;;;5067625;28;20040;-62
2022/09/05 00:40:24;;;;;;;10.40;9.35;;;17.80;99.90;;;;;;5068543;28;20039;-62
2022/09/05 00:43:08;;;;;;;12.18;9.77;;;17.90;99.90;;;;;;5071112;28;20040;-63
2022/09/05 00:45:37;;;;;;;13.23;10.18;;;17.90;99.90;;;;;;5071769;28;20050;-64
2022/09/05 00:48:27;;;;;;;10.40;9.38;;;17.80;99.90;;;;;;5068334;28;20032;-65
2022/09/05 00:51:11;;;;;;;10.93;9.40;;;17.90;99.90;;;;;;5065050;28;20069;-64
2022/09/05 00:53:59;;;;;;;14.55;9.18;;;17.80;99.90;;;;;;5071395;28;20055;-64
2022/09/05 00:56:45;;;;;;;9.98;8.98;;;17.80;99.90;;;;;;5061522;28;20119;-64
2022/09/05 00:59:23;;;;;;;10.18;9.15;;;17.70;99.90;;;;;;5064472;28;20449;-64
2022/09/05 01:02:20;;;;;;;11.32;9.18;;;17.70;99.90;;;;;;5070969;28;20036;-64
2022/09/05 01:05:27;;;;;;;11.13;9.52;;;17.60;99.90;;;;;;5065940;28;20050;-64
2022/09/05 01:08:19;;;;;;;13.05;9.68;;;17.50;99.90;;;;;;5008015;28;20539;-65
2022/09/05 01:11:17;;;;;;;13.73;9.90;;;17.40;99.90;;;;;;4991932;28;20054;-64
2022/09/05 01:14:01;;;;;;;11.00;9.80;;;17.30;99.90;;;;;;5051675;28;20053;-64
2022/09/05 01:16:33;;;;;;;11.73;10.27;;;17.10;99.90;;;;;;5066760;28;20040;-65
2022/09/05 01:19:14;;;;;;;12.88;10.00;;;17.00;99.90;;;;;;5051044;28;20048;-64
2022/09/05 01:22:13;;;;;;;11.07;9.85;;;16.90;99.90;;;;;;5051513;28;20083;-64
2022/09/05 01:24:53;;;;;;;12.18;9.65;;;16.90;99.90;;;;;;5068046;28;20566;-64
2022/09/05 01:27:34;;;;;;;12.10;10.20;;;16.90;99.90;;;;;;5077825;28;20083;-65
2022/09/05 01:30:37;;;;;;;12.73;10.07;;;16.80;99.90;;;;;;5059794;28;20587;-65
2022/09/05 01:33:24;;;;;;;10.52;9.43;;;16.60;99.90;;;;;;5062591;28;20044;-65
2022/09/05 01:36:27;;;;;;;13.05;10.60;;;16.40;99.90;;;;;;5070731;28;20036;-64
2022/09/05 01:39:25;;;;;;;12.57;10.50;;;16.50;99.90;;;;;;5063811;28;20090;-65
2022/09/05 01:42:24;;;;;;;12.63;10.15;;;16.40;99.90;;;;;;5063909;28;20406;-64
2022/09/05 01:45:06;;;;;;;13.80;10.77;;;16.40;99.90;;;;;;5070772;28;20040;-65
2022/09/05 01:48:29;;;;;;;15.57;10.73;;;16.40;99.90;;;;;;5063955;28;20446;-65
2022/09/05 01:51:22;;;;;;;12.57;11.02;;;16.40;99.90;;;;;;5007378;28;20049;-64
2022/09/05 01:54:05;;;;;;;15.35;10.32;;;16.40;99.90;;;;;;5008696;28;20128;-64
2022/09/05 01:56:48;;;;;;;13.75;10.93;;;16.30;99.90;;;;;;5053641;28;20052;-64
2022/09/05 01:59:52;;;;;;;13.50;10.38;;;16.20;99.90;;;;;;5064042;28;20036;-64
2022/09/05 02:02:25;;;;;;;12.23;10.93;;;16.10;99.90;;;;;;5060749;28;21063;-64
2022/09/05 02:05:15;;;;;;;13.25;11.43;;;16.10;99.90;;;;;;5051767;28;20060;-64
2022/09/05 02:08:02;;;;;;;13.05;11.65;;;16.20;99.90;;;;;;5070402;28;20063;-64
2022/09/05 02:10:39;;;;;;;14.63;10.82;;;16.40;99.90;;;;;;5070446;28;20321;-64
2022/09/05 02:13:37;;;;;;;15.93;11.80;;;16.50;99.90;;;;;;5059237;28;20509;-64
2022/09/05 02:16:26;;;;;;;13.27;11.88;;;16.50;99.90;;;;;;5062931;28;20044;-64
2022/09/05 02:19:11;;;;;;;12.63;11.30;;;16.50;99.90;;;;;;5068144;28;20602;-64
2022/09/05 02:21:58;;;;;;;19.77;11.68;;;16.50;99.90;;;;;;5066405;28;20048;-64
2022/09/05 02:24:37;;;;;;;16.10;12.07;;;16.40;99.90;;;;;;5070254;28;20047;-64
2022/09/05 02:27:14;;;;;;;13.30;11.88;;;16.20;99.90;;;;;;5075177;28;20036;-65
2022/09/05 02:30:37;;;;;;;16.80;11.65;;;16.10;99.90;;;;;;5073125;28;20099;-64
2022/09/05 02:33:31;;;;;;;13.35;11.93;;;15.90;99.90;;;;;;4961214;28;20074;-64
2022/09/05 02:36:26;;;;;;;14.95;12.57;;;15.80;99.90;;;;;;4964676;28;20480;-64
2022/09/05 02:38:58;;;;;;;13.57;12.13;;;15.80;99.90;;;;;;5049280;28;20110;-64
2022/09/05 02:41:42;;;;;;;15.48;11.70;;;15.70;99.90;;;;;;5070096;28;20044;-64
2022/09/05 02:44:21;;;;;;;13.45;11.70;;;15.60;99.90;;;;;;5067767;28;20037;-65
2022/09/05 02:46:47;;;;;;;18.13;12.35;;;15.60;99.90;;;;;;5060364;28;20119;-64
2022/09/05 02:49:25;;;;;;;12.77;11.48;;;15.50;99.90;;;;;;5069409;28;20116;-64
2022/09/05 02:52:00;;;;;;;15.63;12.13;;;15.50;99.90;;;;;;5072651;28;20131;-64
2022/09/05 02:54:33;;;;;;;15.32;13.07;;;15.50;99.90;;;;;;5068399;28;20045;-64
2022/09/05 02:57:41;;;;;;;13.68;12.27;;;15.40;99.90;;;;;;5065549;28;20112;-64
2022/09/05 03:00:18;;;;;;;13.73;12.30;;;15.40;99.90;;;;;;5071505;28;20044;-64
2022/09/05 03:02:47;;;;;;;14.05;12.32;;;15.30;99.90;;;;;;5066868;28;20044;-64
2022/09/05 03:05:24;;;;;;;15.50;11.63;;;15.30;99.90;;;;;;5073432;28;20035;-64
2022/09/05 03:08:31;;;;;;;14.15;12.23;;;15.20;99.90;;;;;;5073259;28;20071;-64
2022/09/05 03:11:25;;;;;;;13.38;11.98;;;15.20;99.90;;;;;;4988311;28;20048;-64
2022/09/05 03:14:22;;;;;;;16.20;12.27;;;15.20;99.90;;;;;;5071825;28;20036;-64
2022/09/05 03:17:03;;;;;;;16.55;12.43;;;15.20;99.90;;;;;;5073742;28;20125;-64
2022/09/05 03:20:07;;;;;;;13.63;12.32;;;15.20;99.90;;;;;;5061867;28;20049;-64
2022/09/05 03:22:52;;;;;;;16.05;12.55;;;15.20;99.90;;;;;;5059258;28;20048;-64
2022/09/05 03:25:39;;;;;;;13.75;12.20;;;15.20;99.90;;;;;;5072627;28;20047;-64
2022/09/05 03:28:26;;;;;;;16.45;12.68;;;15.00;99.90;;;;;;5069637;28;20083;-64
2022/09/05 03:31:17;;;;;;;14.60;12.15;;;15.00;99.90;;;;;;5071993;28;20563;-64
2022/09/05 03:34:17;;;;;;;15.50;12.70;;;14.80;99.90;;;;;;5064428;28;20506;-65
2022/09/05 03:37:20;;;;;;;16.15;13.48;;;14.70;99.90;;;;;;5070562;28;20052;-64
2022/09/05 03:40:04;;;;;;;16.92;13.98;;;14.70;99.90;;;;;;5072463;28;20453;-64
2022/09/05 03:43:20;;;;;;;19.90;15.20;;;14.60;99.90;;;;;;5053125;28;20155;-64
2022/09/05 03:45:58;;;;;;;19.70;14.90;;;14.80;99.90;;;;;;5032073;28;20045;-64
2022/09/05 03:48:39;;;;;;;18.73;15.63;;;14.80;99.90;;;;;;5068178;28;20036;-65
2022/09/05 03:51:30;;;;;;;16.88;14.27;;;15.00;99.90;;;;;;5069491;28;20119;-64
2022/09/05 03:54:47;;;;;;;16.63;14.27;;;14.90;99.90;;;;;;5063474;28;20052;-64
2022/09/05 03:57:57;;;;;;;16.15;14.38;;;14.70;99.90;;;;;;5021230;28;20072;-64
2022/09/05 04:00:35;;;;;;;19.13;14.13;;;14.60;99.90;;;;;;5030195;28;20546;-65
2022/09/05 04:03:13;;;;;;;16.42;13.88;;;14.60;99.90;;;;;;5062996;28;20020;-64
2022/09/05 04:06:03;;;;;;;15.25;13.65;;;14.60;99.90;;;;;;5072405;28;20040;-64
2022/09/05 04:08:35;;;;;;;15.75;13.45;;;14.60;99.90;;;;;;5066671;28;20093;-64
2022/09/05 04:11:08;;;;;;;16.30;13.70;;;14.50;99.90;;;;;;5070953;28;20039;-64
2022/09/05 04:14:19;;;;;;;17.80;14.93;;;14.50;99.90;;;;;;5071986;28;20051;-64
2022/09/05 04:16:52;;;;;;;17.25;14.82;;;14.40;99.90;;;;;;4996284;28;20046;-64
2022/09/05 04:19:41;;;;;;;19.10;15.82;;;14.40;99.90;;;;;;5049519;28;20048;-64
2022/09/05 04:22:27;;;;;;;17.35;15.55;;;14.50;99.90;;;;;;5064768;28;20044;-64
2022/09/05 04:24:55;;;;;;;17.00;14.98;;;14.60;99.90;;;;;;5072008;28;20032;-64
2022/09/05 04:27:36;;;;;;;16.10;14.40;;;14.60;99.90;;;;;;5060057;28;20041;-64
2022/09/05 04:30:42;;;;;;;18.48;15.73;;;14.60;99.90;;;;;;5064190;28;20441;-64
2022/09/05 04:33:52;;;;;;;16.88;14.93;;;14.60;99.90;;;;;;5055375;28;20407;-64
2022/09/05 04:36:32;;;;;;;16.92;15.02;;;14.60;99.90;;;;;;5068483;28;20036;-64
2022/09/05 04:39:25;;;;;;;22.50;15.38;;;14.50;99.90;;;;;;5049594;28;20044;-64
2022/09/05 04:42:11;;;;;;;18.08;14.90;;;14.50;99.90;;;;;;5064362;28;20110;-64
2022/09/05 04:44:47;;;;;;;16.92;14.88;;;14.50;99.90;;;;;;5040058;28;20048;-64
2022/09/05 04:47:16;;;;;;;16.63;14.93;;;14.40;99.90;;;;;;5049817;28;20072;-64
2022/09/05 04:49:57;;;;;;;17.33;15.50;;;14.40;99.90;;;;;;5063292;28;20037;-64
2022/09/05 04:52:34;;;;;;;;;;;14.40;99.90;;;;;;5066810;28;20060;-64
2022/09/05 04:55:20;;;;;;;17.25;15.07;;;14.40;99.90;;;;;;5063652;28;19920;-64
2022/09/05 04:57:50;;;;;;;16.05;14.35;;;14.30;99.90;;;;;;5068750;28;20033;-64
2022/09/05 05:00:36;;;;;;;16.95;15.18;;;14.30;99.90;;;;;;5060396;28;20083;-64
2022/09/05 05:03:14;;;;;;;18.05;15.45;;;14.30;99.90;;;;;;5057975;28;20032;-64
2022/09/05 05:05:46;;;;;;;23.35;15.13;;;14.30;99.90;;;;;;5063300;28;20040;-65
2022/09/05 05:08:17;;;;;;;19.40;14.90;;;14.20;99.90;;;;;;5064917;28;20047;-64
2022/09/05 05:11:07;;;;;;;19.40;16.92;;;14.10;99.90;;;;;;5065234;28;20048;-64
2022/09/05 05:13:53;;;;;;;18.38;16.48;;;14.10;99.90;;;;;;5068234;28;20048;-64
2022/09/05 05:16:23;;;;;;;17.83;15.93;;;14.10;99.90;;;;;;5059329;28;20052;-64
2022/09/05 05:19:04;;;;;;;18.08;15.98;;;14.00;99.90;;;;;;5059400;28;20151;-64
2022/09/05 05:21:31;;;;;;;17.75;15.85;;;14.00;99.90;;;;;;5068011;28;20032;-65
2022/09/05 05:24:07;;;;;;;26.35;17.05;;;13.90;99.90;;;;;;5064491;28;20729;-65
2022/09/05 05:26:40;;;;;;;22.27;18.52;;;14.00;99.90;;;;;;5056982;28;20075;-64
2022/09/05 05:29:14;;;;;;;19.85;17.40;;;14.10;99.90;;;;;;5058450;28;20052;-66
2022/09/05 05:31:48;;;;;;;24.55;17.67;;;14.30;99.90;;;;;;5068531;28;20111;-66
2022/09/05 05:34:26;;;;;;;19.20;16.65;;;14.60;99.90;;;;;;5062067;28;20474;-65
2022/09/05 05:36:58;;;;;;;24.02;17.88;;;14.80;99.90;;;;;;5069796;28;20032;-64
2022/09/05 05:39:26;;;;;;;21.33;16.48;;;15.00;99.90;;;;;;5070474;28;20044;-66
2022/09/05 05:41:53;;;;;;;20.65;16.60;;;15.20;99.90;;;;;;5058568;28;20078;-65
2022/09/05 05:44:30;;;;;;;21.65;17.13;;;15.30;99.90;;;;;;5050599;28;20114;-65
2022/09/05 05:47:15;;;;;;;19.17;17.05;;;15.40;99.90;;;;;;5070140;28;20033;-65
2022/09/05 05:49:48;;;;;;;27.67;16.88;;;15.50;99.90;;;;;;5034035;28;20042;-64
2022/09/05 05:52:33;;;;;;;22.23;17.20;;;15.50;99.90;;;;;;5060811;28;20036;-64
2022/09/05 05:55:11;;;;;;;18.80;16.67;;;15.50;99.90;;;;;;5059616;28;20045;-66
2022/09/05 05:57:52;;;;;;;18.88;16.95;;;15.60;99.90;;;;;;5059711;28;20040;-65
2022/09/05 06:00:33;;;;;;;22.15;17.23;;;15.60;99.90;;;;;;5064537;28;20055;-65
2022/09/05 06:03:32;;;;;;;22.58;16.60;;;15.60;99.90;;;;;;5061702;28;20036;-65
2022/09/05 06:06:13;;;;;;;22.88;17.20;;;15.70;99.90;;;;;;5063903;28;20044;-65
2022/09/05 06:09:13;;;;;;;21.70;17.63;;;15.80;99.90;;;;;;5052335;28;20127;-65
2022/09/05 06:11:57;;;;;;;19.70;16.48;;;15.90;99.90;;;;;;5132351;22;20103;-65
2022/09/05 06:14:37;;;;;;;20.35;17.38;;;16.00;99.90;;;;;;5111140;28;20562;-65
2022/09/05 06:17:15;;;;;;;22.58;16.83;;;16.10;99.90;;;;;;5112077;27;20686;-65
2022/09/05 06:19:59;;;;;;;20.75;17.60;;;16.20;99.90;;;;;;5120745;27;20050;-65
2022/09/05 06:22:55;;;;;;;22.63;17.48;;;16.30;99.90;;;;;;5130179;27;20130;-65
2022/09/05 06:25:41;;;;;;;20.65;17.27;;;16.40;99.90;;;;;;5119587;27;20043;-65
2022/09/05 06:28:21;;;;;;;24.67;18.27;;;16.50;99.90;;;;;;5127746;27;20362;-65
2022/09/05 06:31:08;;;;;;;21.15;18.45;;;16.50;99.90;;;;;;5128940;27;20031;-66
2022/09/05 06:33:44;;;;;;;19.83;17.70;;;16.70;99.90;;;;;;5132953;27;20484;-65
2022/09/05 06:36:31;;;;;;;26.50;18.45;;;16.80;99.90;;;;;;5134881;27;20047;-65
2022/09/05 06:39:07;;;;;;;33.10;18.50;;;16.90;99.90;;;;;;5129401;27;20037;-65
2022/09/05 06:42:04;;;;;;;30.48;18.88;;;17.00;99.90;;;;;;5134329;27;20039;-65
2022/09/05 06:44:57;;;;;;;33.55;19.15;;;17.10;99.90;;;;;;5134164;27;20044;-66
2022/09/05 06:47:24;;;;;;;28.17;17.67;;;17.20;99.90;;;;;;5128249;27;20031;-65
2022/09/05 06:50:04;;;;;;;28.92;19.55;;;17.40;99.90;;;;;;5128834;27;20035;-66
2022/09/05 06:53:04;;;;;;;27.27;18.90;;;17.50;99.90;;;;;;5116476;27;20039;-65
2022/09/05 06:55:36;;;;;;;33.65;19.08;;;17.60;99.90;;;;;;5113660;27;20040;-66
2022/09/05 06:58:40;;;;;;;35.70;19.15;;;17.80;99.90;;;;;;5131381;27;20035;-65
2022/09/05 07:01:07;;;;;;;21.60;17.73;;;17.90;99.90;;;;;;5124824;27;20043;-65
2022/09/05 07:04:12;;;;;;;26.33;18.98;;;18.00;99.90;;;;;;5124775;27;20091;-65
2022/09/05 07:07:00;;;;;;;29.23;18.95;;;18.10;99.90;;;;;;5095150;27;20039;-65
2022/09/05 07:09:52;;;;;;;21.13;17.95;;;18.20;99.90;;;;;;5117124;27;20035;-65
2022/09/05 07:12:29;;;;;;;21.42;17.25;;;18.30;99.90;;;;;;5106557;27;20054;-65
2022/09/05 07:15:09;;;;;;;22.02;17.85;;;18.40;99.90;;;;;;5113591;28;20040;-65
2022/09/05 07:17:38;;;;;;;20.40;18.20;;;18.50;99.90;;;;;;5114686;27;20040;-65
2022/09/05 07:20:19;;;;;;;21.92;18.42;;;18.60;99.90;;;;;;5124542;27;20042;-65
2022/09/05 07:23:11;;;;;;;20.10;18.00;;;18.70;99.90;;;;;;5116269;27;20063;-65
2022/09/05 07:25:40;;;;;;;20.63;16.65;;;18.90;99.90;;;;;;5133063;27;20039;-65
2022/09/05 07:28:11;;;;;;;22.35;17.52;;;19.00;99.90;;;;;;5134239;27;20039;-65
2022/09/05 07:30:40;;;;;;;19.88;17.75;;;19.20;99.90;;;;;;5127444;27;20036;-66
2022/09/05 07:33:06;;;;;;;21.00;18.15;;;19.20;99.90;;;;;;5127217;27;20035;-65
2022/09/05 07:35:36;;;;;;;20.38;18.10;;;19.40;99.90;;;;;;5133883;27;20043;-65
2022/09/05 07:38:38;;;;;;;18.88;16.95;;;19.50;99.90;;;;;;5127133;27;20445;-65
2022/09/05 07:41:25;;;;;;;19.00;17.05;;;19.60;99.90;;;;;;5120527;27;20482;-65
2022/09/05 07:44:01;;;;;;;22.58;16.92;;;19.70;99.90;;;;;;5134047;27;20063;-65
2022/09/05 07:46:35;;;;;;;21.38;17.33;;;19.90;99.90;;;;;;5117194;27;20036;-65
2022/09/05 07:49:03;;;;;;;20.88;16.15;;;20.00;99.90;;;;;;5119149;27;20573;-66
2022/09/05 07:51:34;;;;;;;22.60;17.65;;;20.10;99.90;;;;;;5121953;27;20046;-65
2022/09/05 07:54:19;;;;;;;19.15;15.82;;;20.20;99.90;;;;;;5131531;27;20043;-65
2022/09/05 07:56:47;;;;;;;20.52;16.42;;;20.40;99.90;;;;;;5127403;27;20074;-65
2022/09/05 07:59:15;;;;;;;18.70;16.70;;;20.60;99.90;;;;;;5133325;27;20480;-65
2022/09/05 08:01:46;;;;;;;20.30;16.10;;;20.80;99.90;;;;;;5133177;27;20031;-65
2022/09/05 08:04:24;;;;;;;20.50;16.10;;;20.80;99.90;;;;;;5123928;27;20442;-65
2022/09/05 08:06:51;;;;;;;23.13;16.58;;;21.00;99.90;;;;;;5117248;27;20096;-65
2022/09/05 08:09:53;;;;;;;17.85;16.02;;;21.20;99.90;;;;;;5120479;27;20392;-66
2022/09/05 08:12:25;;;;;;;20.95;16.00;;;21.30;99.90;;;;;;5063586;27;20059;-65
2022/09/05 08:15:11;;;;;;;20.95;16.17;;;21.30;99.90;;;;;;5127494;27;20128;-65
2022/09/05 08:18:00;;;;;;;30.80;16.83;;;21.50;99.90;;;;;;5123982;27;20036;-65
2022/09/05 08:20:51;;;;;;;19.30;15.02;;;21.60;99.90;;;;;;5077744;27;20044;-65
2022/09/05 08:23:51;;;;;;;16.55;14.60;;;21.70;99.90;;;;;;5111440;27;20562;-65
2022/09/05 08:26:49;;;;;;;18.83;15.30;;;21.80;99.90;;;;;;5121969;27;20039;-66
2022/09/05 08:29:38;;;;;;;19.65;16.20;;;21.90;99.90;;;;;;5100392;27;20043;-65
2022/09/05 08:32:16;;;;;;;16.35;14.60;;;22.00;99.90;;;;;;5120584;27;20078;-65
2022/09/05 08:34:55;;;;;;;19.80;14.80;;;22.10;99.90;;;;;;5124209;27;20074;-65
2022/09/05 08:37:24;;;;;;;16.13;14.25;;;22.10;99.90;;;;;;5130071;27;20039;-66
2022/09/05 08:39:52;;;;;;;15.82;13.38;;;22.30;99.90;;;;;;5120432;27;20035;-65
2022/09/05 08:42:23;;;;;;;16.30;13.55;;;22.30;99.90;;;;;;5117016;27;20036;-66
2022/09/05 08:45:24;;;;;;;17.13;14.63;;;22.40;99.90;;;;;;5119660;27;20040;-65
2022/09/05 08:47:56;;;;;;;;;;;22.40;99.90;;;;;;5103461;27;20089;-66
2022/09/05 08:50:46;;;;;;;21.92;13.95;;;22.40;99.90;;;;;;5121644;27;20036;-65
2022/09/05 08:53:46;;;;;;;18.65;13.82;;;22.50;99.90;;;;;;5122382;27;20081;-66
2022/09/05 08:56:29;;;;;;;19.98;13.43;;;22.60;99.90;;;;;;5117760;27;20035;-65
2022/09/05 08:59:22;;;;;;;23.48;14.93;;;22.60;99.90;;;;;;5126383;27;20031;-64
2022/09/05 09:01:54;;;;;;;19.05;14.02;;;22.70;99.90;;;;;;5129057;27;20079;-63
2022/09/05 09:04:34;;;;;;;16.65;13.60;;;22.80;99.90;;;;;;5118047;27;20415;-64
2022/09/05 09:07:35;;;;;;;16.60;14.67;;;22.90;99.90;;;;;;5123836;27;20485;-63
2022/09/05 09:10:16;;;;;;;17.05;13.15;;;23.10;99.90;;;;;;5131237;27;20512;-64
2022/09/05 09:13:03;;;;;;;18.75;14.35;;;23.20;99.90;;;;;;5125885;27;20053;-63
2022/09/05 09:15:44;;;;;;;19.92;14.57;;;23.30;99.90;;;;;;5126721;27;20047;-63
2022/09/05 09:18:18;;;;;;;18.58;13.57;;;23.20;99.90;;;;;;5120624;27;20038;-63
2022/09/05 09:20:55;;;;;;;15.75;14.05;;;23.30;99.80;;;;;;5122543;27;20061;-64
2022/09/05 09:23:21;;;;;;;21.77;14.15;;;23.50;99.90;;;;;;5126551;27;20036;-64
2022/09/05 09:26:06;;;;;;;17.15;13.38;;;23.60;99.90;;;;;;5132103;27;20031;-64
2022/09/05 09:29:01;;;;;;;19.73;13.77;;;23.80;99.70;;;;;;5126323;27;20047;-64
2022/09/05 09:32:01;;;;;;;19.40;13.55;;;23.90;99.40;;;;;;5121048;27;20042;-64
2022/09/05 09:34:33;;;;;;;14.30;12.88;;;24.00;99.40;;;;;;5127340;27;20544;-63
2022/09/05 09:37:22;;;;;;;20.13;12.68;;;24.20;99.80;;;;;;5125563;27;20043;-64
2022/09/05 09:39:59;;;;;;;16.45;11.93;;;24.30;98.30;;;;;;5123506;27;20093;-64
2022/09/05 09:42:54;;;;;;;14.00;12.00;;;24.40;98.90;;;;;;5131516;27;20031;-64
2022/09/05 09:45:43;;;;;;;15.70;11.65;;;24.50;97.40;;;;;;5100376;27;20044;-64
2022/09/05 09:48:09;;;;;;;14.32;11.63;;;24.70;98.80;;;;;;5111784;27;20352;-64
2022/09/05 09:50:53;;;;;;;26.98;11.52;;;24.90;98.80;;;;;;5131657;27;20042;-64
2022/09/05 09:53:40;;;;;;;17.92;11.50;;;25.00;98.20;;;;;;5120944;27;20054;-63
2022/09/05 09:56:43;;;;;;;15.50;11.52;;;25.20;97.70;;;;;;5123962;27;20465;-63
2022/09/05 09:59:12;;;;;;;17.23;8.82;;;25.30;97.40;;;;;;5111077;28;20082;-64
2022/09/05 10:01:53;;;;;;;13.60;9.40;;;25.40;97.90;;;;;;5116020;27;20545;-64
2022/09/05 10:04:24;;;;;;;;;;;25.70;97.60;;;;;;5121592;27;20035;-64
2022/09/05 10:07:28;;;;;;;17.55;10.10;;;25.80;96.10;;;;;;5134108;27;20478;-64
2022/09/05 10:09:54;;;;;;;14.05;9.43;;;25.80;96.10;;;;;;5122223;28;20041;-64
2022/09/05 10:12:41;;;;;;;15.52;9.70;;;25.90;97.30;;;;;;5122575;27;20039;-64
2022/09/05 10:15:10;;;;;;;14.85;9.07;;;26.00;96.30;;;;;;5121810;27;20172;-64
2022/09/05 10:17:46;;;;;;;11.73;9.35;;;26.10;96.50;;;;;;5123816;27;20047;-64
2022/09/05 10:20:45;;;;;;;11.93;8.63;;;26.20;96.20;;;;;;5123070;27;20036;-64
2022/09/05 10:23:29;;;;;;;11.43;9.50;;;26.20;93.90;;;;;;5122276;28;20429;-64
2022/09/05 10:26:19;;;;;;;18.55;8.98;;;26.20;93.90;;;;;;5127289;28;20071;-64
2022/09/05 10:28:58;;;;;;;10.70;8.50;;;26.20;93.40;;;;;;5113861;27;20035;-64
2022/09/05 10:31:38;;;;;;;16.13;9.73;;;26.40;94.30;;;;;;5130493;27;20488;-63
2022/09/05 10:34:18;;;;;;;11.23;9.02;;;26.50;93.90;;;;;;5131510;28;20035;-63
2022/09/05 10:36:53;;;;;;;11.07;8.80;;;26.50;94.00;;;;;;5127583;27;20039;-64
2022/09/05 10:39:40;;;;;;;13.88;7.80;;;26.60;93.70;;;;;;5130830;27;20091;-64
2022/09/05 10:42:39;;;;;;;15.55;8.52;;;26.70;93.70;;;;;;5130320;28;20035;-64
2022/09/05 10:45:33;;;;;;;29.23;8.15;;;26.80;92.20;;;;;;5125823;27;20042;-63
2022/09/05 10:48:26;;;;;;;10.80;7.57;;;26.90;92.00;;;;;;5078051;28;20055;-64
2022/09/05 10:51:03;;;;;;;12.57;7.35;;;26.90;91.30;;;;;;5110404;28;20742;-64
2022/09/05 10:53:58;;;;;;;8.85;7.13;;;27.00;92.10;;;;;;5113127;27;20055;-64
2022/09/05 10:56:29;;;;;;;5.95;5.20;;;27.20;92.00;;;;;;5125296;27;20047;-64
2022/09/05 10:59:00;;;;;;;8.45;5.40;;;27.40;90.70;;;;;;5130786;28;20039;-65
2022/09/05 11:01:48;;;;;;;;;;;27.40;91.20;;;;;;5122045;27;20050;-64
2022/09/05 11:04:41;;;;;;;7.25;5.93;;;27.60;90.70;;;;;;5124445;28;20377;-63
2022/09/05 11:07:22;;;;;;;9.32;7.40;;;27.70;90.00;;;;;;5127498;28;20034;-64
2022/09/05 11:10:00;;;;;;;7.85;6.68;;;27.70;90.30;;;;;;5116560;27;20110;-64
2022/09/05 11:12:33;;;;;;;10.32;6.75;;;27.80;90.80;;;;;;5132626;27;20057;-65
2022/09/05 11:15:04;;;;;;;9.98;6.90;;;28.00;90.30;;;;;;5134612;27;20509;-64
2022/09/05 11:17:58;;;;;;;7.00;5.85;;;28.00;89.70;;;;;;5127823;27;20035;-65
2022/09/05 11:20:58;;;;;;;7.93;7.00;;;28.00;87.20;;;;;;5120441;27;20083;-63
2022/09/05 11:23:40;;;;;;;7.90;6.30;;;28.20;86.90;;;;;;5079223;27;20572;-63
2022/09/05 11:26:27;;;;;;;7.60;6.05;;;28.20;85.60;;;;;;5118616;27;20027;-63
2022/09/05 11:29:00;;;;;;;7.78;6.80;;;28.30;87.60;;;;;;5106870;27;20493;-63
2022/09/05 11:32:08;;;;;;;7.95;5.85;;;28.40;87.80;;;;;;5127072;27;20073;-63
2022/09/05 11:34:55;;;;;;;8.73;6.47;;;28.60;83.40;;;;;;5040263;28;20535;-63
2022/09/05 11:37:43;;;;;;;8.75;6.18;;;28.30;85.50;;;;;;5118728;27;20131;-63
2022/09/05 11:40:12;;;;;;;6.13;4.97;;;28.30;83.50;;;;;;5122382;27;20042;-63
2022/09/05 11:42:59;;;;;;;14.77;5.35;;;28.70;86.00;;;;;;5121013;27;20028;-64
2022/09/05 11:45:44;;;;;;;10.70;5.40;;;28.90;83.00;;;;;;5121335;27;20122;-63
2022/09/05 11:48:40;;;;;;;6.95;4.93;;;29.10;79.90;;;;;;5127861;27;20074;-63
2022/09/05 11:51:12;;;;;;;6.80;5.00;;;29.30;80.10;;;;;;5121832;27;20034;-63
2022/09/05 11:53:56;;;;;;;5.20;4.70;;;29.50;79.00;;;;;;5120951;27;20344;-63
2022/09/05 11:56:42;;;;;;;6.07;5.00;;;29.60;77.30;;;;;;5127771;27;20035;-63
2022/09/05 11:59:08;;;;;;;11.82;5.10;;;29.80;75.40;;;;;;5122887;27;20027;-63
2022/09/05 12:01:40;;;;;;;8.82;5.25;;;29.60;78.40;;;;;;5115209;27;20397;-63
2022/09/05 12:04:37;;;;;;;5.10;4.53;;;29.40;77.40;;;;;;5130569;27;20039;-63
2022/09/05 12:07:30;;;;;;;8.77;5.60;;;29.30;75.30;;;;;;5107449;27;20080;-63
2022/09/05 12:10:17;;;;;;;5.50;5.00;;;29.30;74.00;;;;;;5161787;22;20075;-63
2022/09/05 12:13:17;;;;;;;9.50;4.82;;;29.20;74.80;;;;;;5045548;28;20033;-64
2022/09/05 12:15:46;;;;;;;5.37;4.17;;;29.20;73.90;;;;;;5051518;28;20494;-64
2022/09/05 12:18:12;;;;;;;6.00;5.40;;;29.40;76.20;;;;;;5061321;28;20645;-64
2022/09/05 12:20:59;;;;;;;6.55;5.25;;;29.40;75.50;;;;;;5052356;28;20484;-64
2022/09/05 12:23:59;;;;;;;8.20;6.00;;;29.20;72.40;;;;;;5041056;28;20094;-64
2022/09/05 12:26:53;;;;;;;5.60;4.88;;;29.00;73.20;;;;;;5043544;28;20708;-64
2022/09/05 12:29:22;;;;;;;8.95;5.85;;;28.80;74.80;;;;;;5039024;28;20095;-64
2022/09/05 12:31:53;;;;;;;7.68;5.80;;;28.50;76.80;;;;;;5049274;28;20037;-64
2022/09/05 12:34:52;;;;;;;9.18;6.53;;;28.50;76.40;;;;;;5045624;28;20033;-64
2022/09/05 12:37:39;;;;;;;9.65;6.20;;;28.90;74.70;;;;;;5041036;28;20068;-64
2022/09/05 12:40:16;;;;;;;8.18;5.53;;;29.40;76.90;;;;;;5038886;28;20076;-64
2022/09/05 12:42:59;;;;;;;7.97;5.80;;;29.60;74.20;;;;;;5035532;28;20084;-64
2022/09/05 12:46:08;;;;;;;6.35;5.72;;;29.90;74.30;;;;;;5031124;28;20037;-64
2022/09/05 12:48:38;;;;;;;13.98;5.38;;;30.00;73.00;;;;;;4996612;28;20049;-64
2022/09/05 12:51:18;;;;;;;7.18;5.57;;;30.00;70.10;;;;;;5034399;28;20037;-64
2022/09/05 12:53:48;;;;;;;7.47;6.17;;;29.70;72.60;;;;;;5040515;28;20037;-64
2022/09/05 12:56:37;;;;;;;7.22;4.88;;;29.50;73.40;;;;;;5044964;28;20076;-64
2022/09/05 12:59:05;;;;;;;7.97;5.45;;;29.10;72.00;;;;;;5013768;28;20049;-64
2022/09/05 13:01:34;;;;;;;9.40;6.10;;;29.00;72.80;;;;;;5030570;28;20038;-64
2022/09/05 13:04:21;;;;;;;7.68;5.57;;;28.90;73.40;;;;;;5031521;28;20103;-64
2022/09/05 13:07:00;;;;;;;7.07;5.60;;;29.10;73.80;;;;;;5034928;28;20049;-64
2022/09/05 13:09:28;;;;;;;11.18;6.13;;;29.20;72.30;;;;;;5030809;28;20530;-64
2022/09/05 13:12:03;;;;;;;8.63;5.90;;;29.10;73.40;;;;;;5030413;28;20096;-64
2022/09/05 13:14:56;;;;;;;5.30;4.80;;;28.90;73.10;;;;;;5028624;28;20487;-64
2022/09/05 13:17:47;;;;;;;11.70;6.47;;;28.80;72.80;;;;;;5030991;28;20037;-64
2022/09/05 13:20:38;;;;;;;6.35;5.47;;;29.30;72.80;;;;;;5019283;28;20040;-64
2022/09/05 13:23:06;;;;;;;;;;;29.20;72.60;;;;;;5033703;28;20514;-64
2022/09/05 13:25:35;;;;;;;9.38;4.70;;;29.50;71.00;;;;;;5043647;28;20340;-64
2022/09/05 13:28:08;;;;;;;6.50;5.90;;;29.80;72.60;;;;;;5038006;28;20045;-65
2022/09/05 13:30:47;;;;;;;8.35;4.82;;;30.20;71.90;;;;;;5034412;28;20293;-64
2022/09/05 13:33:36;;;;;;;8.50;4.10;;;30.30;69.20;;;;;;5029233;28;20045;-64
2022/09/05 13:36:07;;;;;;;5.70;4.80;;;30.60;67.00;;;;;;5028098;28;20083;-64
2022/09/05 13:38:45;;;;;;;10.27;4.25;;;30.80;68.50;;;;;;5023147;28;20050;-64
2022/09/05 13:41:20;;;;;;;5.18;4.68;;;31.00;67.60;;;;;;5042613;28;20518;-65
2022/09/05 13:43:46;;;;;;;8.68;4.75;;;31.10;67.50;;;;;;5030176;28;20068;-64
2022/09/05 13:46:19;;;;;;;7.40;4.50;;;31.30;66.90;;;;;;5030722;28;21631;-65
2022/09/05 13:49:05;;;;;;;5.97;4.10;;;31.30;66.60;;;;;;5038685;28;20052;-64
2022/09/05 13:51:35;;;;;;;4.80;4.18;;;31.20;63.00;;;;;;5032428;28;20124;-64
2022/09/05 13:54:29;;;;;;;7.80;4.37;;;31.10;65.90;;;;;;5030537;28;20128;-65
2022/09/05 13:57:28;;;;;;;10.50;4.60;;;31.10;64.80;;;;;;5044512;28;20278;-65